TimeCST,TemperatureF,Dew PointF,Humidity,Sea Level PressureIn,VisibilityMPH,Wind Direction,Wind SpeedMPH,Gust SpeedMPH,PrecipitationIn,Events,Conditions,WindDirDegrees,DateUTC
12:56 AM,33.1,21.9,64,30.20,10.0,Calm,Calm,-,N/A,,Clear,0,2012-11-29 06:56:00
1:56 AM,33.1,23.0,66,30.19,10.0,SE,4.6,-,N/A,,Clear,140,2012-11-29 07:56:00
2:56 AM,30.0,21.9,72,30.17,9.0,Calm,Calm,-,N/A,,Clear,0,2012-11-29 08:56:00
3:56 AM,32.0,23.0,69,30.15,9.0,Calm,Calm,-,N/A,,Clear,0,2012-11-29 09:56:00
4:56 AM,30.0,23.0,75,30.16,8.0,South,3.5,-,N/A,,Clear,190,2012-11-29 10:56:00
5:56 AM,23.0,19.0,85,30.15,6.0,Calm,Calm,-,N/A,,Clear,0,2012-11-29 11:56:00
6:56 AM,25.0,21.0,85,30.15,7.0,ESE,3.5,-,N/A,,Clear,120,2012-11-29 12:56:00
7:56 AM,28.9,23.0,78,30.15,6.0,Calm,Calm,-,N/A,,Haze,0,2012-11-29 13:56:00
8:56 AM,33.1,27.0,78,30.14,6.0,ESE,4.6,-,N/A,,Haze,110,2012-11-29 14:56:00
9:56 AM,37.9,27.0,65,30.14,7.0,Calm,Calm,-,N/A,,Clear,0,2012-11-29 15:56:00
10:56 AM,43.0,28.0,56,30.13,8.0,Calm,Calm,-,N/A,,Clear,0,2012-11-29 16:56:00
11:56 AM,45.0,28.9,53,30.10,8.0,Calm,Calm,-,N/A,,Clear,0,2012-11-29 17:56:00
12:56 PM,48.0,30.0,50,30.06,9.0,Variable,3.5,-,N/A,,Clear,0,2012-11-29 18:56:00
1:56 PM,50.0,30.0,46,30.04,9.0,East,3.5,-,N/A,,Clear,90,2012-11-29 19:56:00
2:56 PM,50.0,30.9,48,30.04,9.0,East,6.9,-,N/A,,Clear,100,2012-11-29 20:56:00
3:56 PM,46.9,30.9,54,30.05,9.0,East,5.8,-,N/A,,Clear,100,2012-11-29 21:56:00
4:56 PM,37.9,28.0,68,30.06,9.0,East,5.8,-,N/A,,Clear,100,2012-11-29 22:56:00
5:56 PM,37.9,28.0,68,30.07,9.0,Calm,Calm,-,N/A,,Clear,0,2012-11-29 23:56:00
6:56 PM,36.0,28.0,73,30.08,8.0,East,6.9,-,N/A,,Clear,100,2012-11-30 00:56:00
7:56 PM,37.0,28.9,73,30.06,8.0,ESE,5.8,-,N/A,,Clear,120,2012-11-30 01:56:00
8:56 PM,39.0,30.0,70,30.08,9.0,ENE,6.9,-,N/A,,Overcast,60,2012-11-30 02:56:00
9:56 PM,42.1,30.0,62,30.08,9.0,ENE,9.2,-,N/A,,Overcast,70,2012-11-30 03:56:00
10:56 PM,39.9,30.0,68,30.08,7.0,East,10.4,-,N/A,,Overcast,80,2012-11-30 04:56:00
11:56 PM,37.9,30.9,76,30.07,7.0,East,10.4,-,N/A,,Overcast,80,2012-11-30 05:56:00